Terminal Aerodrome Forecast
Issued by NWS

Home | Current Version | Previous Version | Text Only | Print | Product List | Glossary On
Versions: 1 2 3 4 5 6 7 8 9 10 11 12 13 14 15 16 17 18 19 20 21 22 23 24 25 26 27 28 29
000
FTUS42 KFFC 222300
TAFPDK
TAF
KPDK 222335Z 2300/2324 09004KT P6SM FEW035 BKN100
     FM230400 09005KT P6SM SCT015 BKN080
     FM230900 VRB03KT P6SM BKN006
     FM231400 27004KT P6SM BKN020
     FM231700 25007KT P6SM VCSH SCT035 BKN050 PROB30 2319/2323 4SM
      -TSRA BR BKN035CB=

USA.gov is the U.S. government's official web portal to all federal, state and local government web resources and services.